Time;durP1;ratioP1;P1;durP2;ratioP2;P2;SDS_P1;SDS_P2;PMS_P1;PMS_P2;Temp;Humidity;BMP_temperature;BMP_pressure;BME280_temperature;BME280_humidity;BME280_pressure;Samples;Min_cycle;Max_cycle;Signal;HPM_P1;HPM_P2
2022/10/24 00:01:27;;;;;;;8.40;2.50;;;19.80;94.00;;;;;;5044570;28;20458;-81
2022/10/24 00:03:55;;;;;;;6.57;2.20;;;19.90;94.20;;;;;;5042131;28;20482;-81
2022/10/24 00:06:23;;;;;;;3.43;2.17;;;19.80;93.90;;;;;;5042452;28;20475;-81
2022/10/24 00:08:51;;;;;;;8.03;2.83;;;19.90;94.00;;;;;;5042656;28;20422;-81
2022/10/24 00:11:23;;;;;;;7.97;2.20;;;19.80;94.00;;;;;;5021403;28;20441;-81
2022/10/24 00:13:50;;;;;;;4.93;2.40;;;19.90;94.10;;;;;;5025660;28;20471;-81
2022/10/24 00:16:18;;;;;;;5.13;2.30;;;19.90;93.80;;;;;;5043415;28;20467;-81
2022/10/24 00:18:47;;;;;;;7.13;2.47;;;19.90;94.00;;;;;;5040931;28;20465;-81
2022/10/24 00:21:15;;;;;;;5.53;2.30;;;19.90;94.10;;;;;;5038903;28;20443;-81
2022/10/24 00:23:43;;;;;;;7.10;3.23;;;19.80;94.30;;;;;;5039638;28;20472;-81
2022/10/24 00:26:11;;;;;;;7.07;3.50;;;19.80;93.80;;;;;;5040451;28;20454;-81
2022/10/24 00:28:40;;;;;;;6.73;3.07;;;19.80;93.70;;;;;;5038902;28;20478;-81
2022/10/24 00:31:08;;;;;;;5.70;2.90;;;19.80;93.80;;;;;;5040169;28;20435;-81
2022/10/24 00:33:37;;;;;;;5.60;2.70;;;19.90;93.60;;;;;;5039864;28;20480;-81
2022/10/24 00:36:05;;;;;;;5.07;2.70;;;19.80;93.90;;;;;;5038941;28;20463;-81
2022/10/24 00:38:33;;;;;;;6.93;2.60;;;19.80;93.80;;;;;;5039508;28;20467;-81
2022/10/24 00:41:01;;;;;;;4.07;2.27;;;19.70;93.90;;;;;;5039425;28;20452;-81
2022/10/24 00:43:30;;;;;;;5.53;2.73;;;19.70;93.90;;;;;;5039215;28;20474;-81
2022/10/24 00:45:59;;;;;;;4.67;2.60;;;19.80;94.30;;;;;;5037995;28;20822;-81
2022/10/24 00:48:28;;;;;;;8.67;2.50;;;19.80;94.20;;;;;;5039019;28;20451;-81
2022/10/24 00:50:58;;;;;;;4.13;2.03;;;19.80;93.90;;;;;;5030440;28;20459;-81
2022/10/24 00:53:26;;;;;;;5.40;2.30;;;19.80;94.30;;;;;;5039887;28;20482;-81
2022/10/24 00:55:55;;;;;;;7.57;2.40;;;19.80;94.30;;;;;;5037894;28;20463;-81
2022/10/24 00:58:25;;;;;;;6.10;2.60;;;19.80;94.40;;;;;;5020265;28;20447;-81
2022/10/24 01:00:53;;;;;;;3.23;2.33;;;19.90;94.30;;;;;;5040326;28;20454;-81
2022/10/24 01:03:22;;;;;;;6.57;1.87;;;19.80;94.10;;;;;;5040517;28;20471;-81
2022/10/24 01:06:16;;;;;;;7.77;2.47;;;19.80;94.10;;;;;;5039502;28;20448;-81
2022/10/24 01:08:46;;;;;;;12.60;2.17;;;19.90;94.00;;;;;;5032312;28;20447;-81
2022/10/24 01:11:21;;;;;;;7.30;2.40;;;19.90;94.00;;;;;;5041280;28;20463;-81
2022/10/24 01:13:55;;;;;;;4.53;2.50;;;19.90;94.10;;;;;;5041372;28;20474;-81
2022/10/24 01:16:26;;;;;;;7.93;2.33;;;19.80;94.20;;;;;;5039334;28;20475;-81
2022/10/24 01:18:58;;;;;;;6.17;2.07;;;19.80;94.30;;;;;;5038980;28;20447;-81
2022/10/24 01:21:29;;;;;;;5.10;2.50;;;19.90;94.40;;;;;;5036529;28;20452;-81
2022/10/24 01:24:02;;;;;;;3.10;2.23;;;19.90;94.40;;;;;;5040676;28;20475;-81
2022/10/24 01:26:56;;;;;;;9.97;2.70;;;19.90;94.40;;;;;;5040115;28;20432;-81
2022/10/24 01:29:40;;;;;;;7.50;2.33;;;19.80;94.10;;;;;;5030754;28;20452;-81
2022/10/24 01:32:10;;;;;;;2.97;2.17;;;19.80;94.50;;;;;;5038332;28;20485;-81
2022/10/24 01:34:40;;;;;;;4.30;2.77;;;19.80;94.30;;;;;;5038648;28;20452;-81
2022/10/24 01:37:10;;;;;;;6.33;2.23;;;19.80;94.50;;;;;;5039328;28;20435;-81
2022/10/24 01:39:40;;;;;;;4.00;2.50;;;19.80;94.50;;;;;;5040253;28;20448;-81
2022/10/24 01:42:08;;;;;;;11.77;3.17;;;19.80;94.40;;;;;;5034556;28;20476;-81
2022/10/24 01:44:38;;;;;;;5.30;2.03;;;19.80;94.20;;;;;;5038633;28;20447;-81
2022/10/24 01:47:07;;;;;;;12.10;2.43;;;19.80;94.10;;;;;;5038877;28;20455;-81
2022/10/24 01:49:36;;;;;;;7.53;2.53;;;19.90;94.30;;;;;;5038634;28;20459;-81
2022/10/24 01:52:08;;;;;;;6.20;2.67;;;19.80;94.30;;;;;;5038296;28;20471;-81
2022/10/24 01:54:36;;;;;;;3.87;2.00;;;19.80;94.20;;;;;;5037989;28;20455;-81
2022/10/24 01:57:04;;;;;;;2.80;2.20;;;19.80;94.60;;;;;;5040614;28;20473;-81
2022/10/24 01:59:47;;;;;;;5.33;2.40;;;19.70;94.40;;;;;;5044631;28;20466;-81
2022/10/24 02:02:18;;;;;;;7.90;2.40;;;19.80;94.50;;;;;;5038193;28;20578;-81
2022/10/24 02:04:48;;;;;;;4.73;2.40;;;19.70;94.60;;;;;;5039040;28;20477;-81
2022/10/24 02:07:16;;;;;;;7.20;2.63;;;19.80;94.80;;;;;;5039299;28;20447;-81
2022/10/24 02:09:44;;;;;;;2.73;2.10;;;19.70;94.90;;;;;;5038036;28;20455;-81
2022/10/24 02:12:13;;;;;;;8.33;2.40;;;19.80;94.50;;;;;;5037810;28;20474;-82
2022/10/24 02:14:43;;;;;;;4.40;2.40;;;19.80;94.70;;;;;;5029362;28;20487;-81
2022/10/24 02:17:12;;;;;;;5.90;1.93;;;19.80;94.40;;;;;;5034130;28;20463;-81
2022/10/24 02:19:40;;;;;;;2.73;2.00;;;19.80;94.20;;;;;;5035278;28;20466;-81
2022/10/24 02:22:11;;;;;;;12.57;2.47;;;19.70;94.30;;;;;;5038621;28;20486;-81
2022/10/24 02:24:41;;;;;;;8.53;2.50;;;19.80;94.40;;;;;;5042812;28;20461;-81
2022/10/24 02:27:12;;;;;;;7.37;2.53;;;19.80;94.50;;;;;;5044759;28;20427;-81
2022/10/24 02:29:42;;;;;;;3.13;2.10;;;19.80;94.60;;;;;;5045010;28;20478;-81
2022/10/24 02:32:13;;;;;;;2.77;2.10;;;19.80;94.50;;;;;;5042216;28;20475;-81
2022/10/24 02:34:41;;;;;;;3.20;1.80;;;19.80;94.30;;;;;;5030724;28;20460;-81
2022/10/24 02:37:09;;;;;;;5.80;1.93;;;19.70;94.40;;;;;;5046723;28;20497;-81
2022/10/24 02:39:37;;;;;;;12.80;2.90;;;19.70;94.30;;;;;;5039945;28;20489;-81
2022/10/24 02:42:05;;;;;;;5.53;2.00;;;19.70;94.30;;;;;;5037193;28;20460;-81
2022/10/24 02:44:33;;;;;;;5.37;2.53;;;19.80;94.30;;;;;;5036186;28;20502;-81
2022/10/24 02:47:01;;;;;;;6.73;2.07;;;19.80;94.50;;;;;;5037979;28;20424;-81
2022/10/24 02:49:31;;;;;;;7.60;2.60;;;19.70;94.30;;;;;;5033523;28;20483;-81
2022/10/24 02:51:59;;;;;;;3.23;2.30;;;19.70;94.40;;;;;;5033586;28;20468;-81
2022/10/24 02:54:27;;;;;;;4.00;1.70;;;19.70;94.30;;;;;;5033103;28;20529;-81
2022/10/24 02:56:58;;;;;;;3.23;2.07;;;19.70;94.40;;;;;;5038157;28;20471;-81
2022/10/24 02:59:26;;;;;;;9.10;2.50;;;19.70;94.20;;;;;;5045185;28;20463;-81
2022/10/24 03:01:54;;;;;;;7.30;2.60;;;19.60;94.40;;;;;;5036767;28;20476;-80
2022/10/24 03:04:22;;;;;;;6.27;3.10;;;19.60;94.50;;;;;;5034633;28;20447;-80
2022/10/24 03:06:52;;;;;;;7.87;2.83;;;19.70;94.40;;;;;;5036090;28;20438;-81
2022/10/24 03:09:20;;;;;;;8.50;2.53;;;19.60;94.50;;;;;;5037281;28;20455;-80
2022/10/24 03:11:48;;;;;;;8.13;2.27;;;19.60;94.40;;;;;;5036283;28;20442;-80
2022/10/24 03:14:16;;;;;;;9.67;2.60;;;19.60;94.40;;;;;;5035808;28;20447;-80
2022/10/24 03:16:44;;;;;;;9.53;2.20;;;19.50;94.30;;;;;;5035541;28;20467;-80
2022/10/24 03:19:12;;;;;;;11.83;2.50;;;19.50;94.40;;;;;;5036280;28;20459;-80
2022/10/24 03:21:41;;;;;;;13.63;2.30;;;19.50;94.50;;;;;;5036692;28;20458;-79
2022/10/24 03:24:10;;;;;;;6.10;2.40;;;19.50;94.30;;;;;;5035559;28;20458;-81
2022/10/24 03:26:38;;;;;;;9.40;2.27;;;19.50;94.40;;;;;;5037157;28;20432;-81
2022/10/24 03:29:06;;;;;;;5.10;2.20;;;19.40;94.40;;;;;;5035209;28;20454;-81
2022/10/24 03:31:35;;;;;;;15.47;3.33;;;19.40;94.40;;;;;;5035345;28;20446;-81
2022/10/24 03:34:03;;;;;;;5.90;1.93;;;19.40;94.60;;;;;;5034560;28;20475;-81
2022/10/24 03:36:31;;;;;;;13.30;2.53;;;19.40;94.50;;;;;;5033856;28;20479;-81
2022/10/24 03:38:59;;;;;;;5.03;2.13;;;19.40;94.50;;;;;;5035253;28;20443;-80
2022/10/24 03:41:29;;;;;;;5.70;2.60;;;19.30;94.50;;;;;;5038231;28;20447;-80
2022/10/24 03:43:57;;;;;;;5.77;2.60;;;19.30;94.40;;;;;;5037016;28;20497;-80
2022/10/24 03:46:25;;;;;;;6.63;2.40;;;19.30;94.40;;;;;;5037329;28;20450;-81
2022/10/24 03:48:53;;;;;;;3.73;2.20;;;19.40;94.10;;;;;;5042529;28;20450;-81
2022/10/24 03:51:22;;;;;;;4.47;2.40;;;19.30;94.20;;;;;;5031048;28;20448;-80
2022/10/24 03:53:50;;;;;;;6.00;2.20;;;19.30;94.30;;;;;;5037063;28;20463;-80
2022/10/24 03:56:18;;;;;;;8.17;2.90;;;19.30;94.00;;;;;;5042388;28;20478;-80
2022/10/24 03:58:47;;;;;;;4.93;2.67;;;19.30;93.90;;;;;;5042531;28;20451;-80
2022/10/24 04:01:17;;;;;;;7.80;2.33;;;19.30;94.00;;;;;;5031131;28;20448;-81
2022/10/24 04:03:45;;;;;;;6.40;2.60;;;19.30;93.80;;;;;;5021835;28;20535;-80
2022/10/24 04:06:13;;;;;;;12.00;2.93;;;19.30;94.10;;;;;;5037092;28;20439;-80
2022/10/24 04:08:41;;;;;;;11.97;2.63;;;19.10;93.80;;;;;;5039553;28;20486;-80
2022/10/24 04:11:09;;;;;;;12.87;2.17;;;19.10;94.00;;;;;;5031998;28;20457;-80
2022/10/24 04:13:37;;;;;;;8.83;2.80;;;19.20;93.90;;;;;;5028565;28;20475;-80
2022/10/24 04:16:07;;;;;;;5.23;2.27;;;19.20;93.80;;;;;;5036273;28;20455;-80
2022/10/24 04:18:34;;;;;;;3.57;2.67;;;19.20;93.70;;;;;;5040549;28;20481;-80
2022/10/24 04:21:02;;;;;;;5.53;2.70;;;19.20;93.50;;;;;;5040131;28;20461;-80
2022/10/24 04:23:34;;;;;;;6.10;2.57;;;19.20;93.30;;;;;;5039777;28;20497;-80
2022/10/24 04:26:03;;;;;;;8.77;3.33;;;19.20;93.20;;;;;;5060321;28;20451;-80
2022/10/24 04:28:30;;;;;;;7.90;3.10;;;19.20;93.00;;;;;;5033196;28;20435;-80
2022/10/24 04:30:58;;;;;;;6.77;3.00;;;19.10;93.10;;;;;;5039429;28;20448;-80
2022/10/24 04:33:28;;;;;;;6.87;3.03;;;19.20;92.90;;;;;;5038914;28;20467;-80
2022/10/24 04:35:56;;;;;;;10.93;3.40;;;19.00;93.30;;;;;;5039947;28;20447;-80
2022/10/24 04:38:24;;;;;;;14.03;2.77;;;19.10;93.30;;;;;;5040826;28;20467;-80
2022/10/24 04:40:54;;;;;;;7.70;3.10;;;19.10;92.80;;;;;;5040087;28;20880;-80
2022/10/24 04:43:22;;;;;;;6.90;2.80;;;19.10;92.70;;;;;;5035849;28;20483;-80
2022/10/24 04:45:51;;;;;;;7.90;2.80;;;19.00;92.50;;;;;;5041248;28;20518;-80
2022/10/24 04:48:18;;;;;;;10.93;3.00;;;19.00;92.80;;;;;;5047744;28;20427;-80
2022/10/24 04:50:48;;;;;;;5.40;2.40;;;19.00;92.30;;;;;;5047336;28;20444;-80
2022/10/24 04:53:16;;;;;;;8.50;3.10;;;19.10;92.40;;;;;;5040463;28;20451;-80
2022/10/24 04:55:45;;;;;;;6.63;3.13;;;19.10;92.00;;;;;;5042911;28;20431;-80
2022/10/24 04:58:12;;;;;;;6.90;2.90;;;19.10;92.40;;;;;;5035398;28;20471;-80
2022/10/24 05:00:45;;;;;;;8.47;3.00;;;19.10;92.10;;;;;;5040772;28;20432;-80
2022/10/24 05:03:13;;;;;;;11.70;3.00;;;19.10;92.20;;;;;;5037043;28;20478;-80
2022/10/24 05:05:41;;;;;;;4.30;2.67;;;19.20;91.70;;;;;;5046883;28;20521;-80
2022/10/24 05:08:10;;;;;;;6.83;2.60;;;19.20;91.60;;;;;;5041620;28;20535;-80
2022/10/24 05:10:38;;;;;;;12.87;2.90;;;19.20;91.40;;;;;;5040853;28;20460;-80
2022/10/24 05:13:07;;;;;;;10.00;2.80;;;19.20;91.40;;;;;;5037834;28;20500;-80
2022/10/24 05:15:35;;;;;;;8.13;2.80;;;19.20;91.30;;;;;;5040590;28;20472;-80
2022/10/24 05:18:03;;;;;;;9.03;2.60;;;19.20;91.00;;;;;;5041637;28;20472;-81
2022/10/24 05:20:31;;;;;;;10.03;2.83;;;19.20;90.90;;;;;;5044629;28;20452;-81
2022/10/24 05:22:59;;;;;;;9.50;2.73;;;19.10;91.20;;;;;;5045348;28;20483;-81
2022/10/24 05:25:29;;;;;;;11.07;2.73;;;19.10;91.10;;;;;;5040019;28;20483;-81
2022/10/24 05:27:57;;;;;;;7.40;2.90;;;19.10;91.00;;;;;;5048395;28;20447;-81
2022/10/24 05:30:25;;;;;;;8.10;2.63;;;19.10;90.70;;;;;;5036615;28;20527;-80
2022/10/24 05:32:53;;;;;;;7.63;2.53;;;19.10;90.80;;;;;;5045238;28;20589;-81
2022/10/24 05:35:21;;;;;;;3.10;2.20;;;19.00;90.90;;;;;;5041700;28;20444;-81
2022/10/24 05:37:49;;;;;;;7.43;3.03;;;19.00;91.00;;;;;;5041362;28;20472;-81
2022/10/24 05:40:17;;;;;;;6.70;2.77;;;19.00;90.80;;;;;;5040050;28;20483;-81
2022/10/24 05:42:47;;;;;;;7.90;3.10;;;19.10;90.90;;;;;;5048229;28;20475;-80
2022/10/24 05:45:15;;;;;;;7.03;2.57;;;19.10;90.70;;;;;;5044829;28;20445;-80
2022/10/24 05:47:43;;;;;;;7.17;2.90;;;19.00;90.60;;;;;;5038912;28;20450;-80
2022/10/24 05:50:11;;;;;;;7.97;2.90;;;19.00;90.50;;;;;;5049134;28;20466;-80
2022/10/24 05:52:41;;;;;;;8.73;2.97;;;19.00;90.50;;;;;;5047634;28;20546;-80
2022/10/24 05:55:14;;;;;;;10.43;2.47;;;19.00;90.60;;;;;;5035626;28;20450;-80
2022/10/24 05:57:46;;;;;;;10.97;2.97;;;19.00;90.40;;;;;;5038430;28;20476;-80
2022/10/24 06:00:15;;;;;;;13.20;3.17;;;18.90;90.70;;;;;;5045733;28;20451;-80
2022/10/24 06:02:43;;;;;;;13.07;3.00;;;19.00;90.50;;;;;;5045161;28;20503;-80
2022/10/24 06:05:11;;;;;;;8.77;3.03;;;19.00;90.40;;;;;;5042848;28;20546;-80
2022/10/24 06:07:40;;;;;;;5.47;2.77;;;18.90;90.00;;;;;;5044963;28;20479;-80
2022/10/24 06:10:09;;;;;;;9.27;3.07;;;19.00;90.10;;;;;;5045019;28;20446;-80
2022/10/24 06:12:38;;;;;;;9.23;3.00;;;19.00;90.00;;;;;;5045830;28;20464;-80
2022/10/24 06:15:08;;;;;;;7.53;2.80;;;18.90;90.00;;;;;;5045515;28;20448;-80
2022/10/24 06:17:36;;;;;;;8.53;2.63;;;18.90;90.00;;;;;;5045304;28;20478;-80
2022/10/24 06:20:04;;;;;;;7.33;3.00;;;19.00;90.00;;;;;;5044797;28;20470;-80
2022/10/24 06:22:32;;;;;;;8.77;3.47;;;19.00;90.00;;;;;;5035209;28;20476;-80
2022/10/24 06:25:00;;;;;;;6.40;2.97;;;19.00;89.60;;;;;;5036625;28;20462;-80
2022/10/24 06:27:29;;;;;;;8.57;2.50;;;19.00;90.00;;;;;;5038794;28;20459;-80
2022/10/24 06:29:57;;;;;;;7.77;2.63;;;18.90;89.60;;;;;;5040264;28;20443;-80
2022/10/24 06:32:26;;;;;;;9.60;2.53;;;19.00;89.20;;;;;;5039387;28;20486;-81
2022/10/24 06:34:54;;;;;;;6.67;2.93;;;19.00;88.50;;;;;;5039366;28;20448;-80
2022/10/24 06:37:22;;;;;;;4.90;2.23;;;18.90;88.70;;;;;;5035017;28;20458;-80
2022/10/24 06:39:50;;;;;;;6.17;2.37;;;19.10;87.20;;;;;;5027884;28;20476;-80
2022/10/24 06:42:18;;;;;;;3.53;2.13;;;19.10;87.20;;;;;;5031161;28;20456;-81
2022/10/24 06:44:46;;;;;;;6.93;2.10;;;19.10;86.30;;;;;;5036936;28;20460;-80
2022/10/24 06:47:15;;;;;;;7.50;2.20;;;19.10;85.50;;;;;;5039486;28;20455;-80
2022/10/24 06:49:44;;;;;;;8.40;2.13;;;19.10;85.30;;;;;;5038811;28;20458;-80
2022/10/24 06:52:12;;;;;;;9.20;2.63;;;19.20;85.00;;;;;;5038797;28;20518;-80
2022/10/24 06:54:42;;;;;;;4.10;1.80;;;19.20;84.90;;;;;;5036763;28;20495;-80
2022/10/24 06:57:10;;;;;;;8.90;2.63;;;19.30;84.70;;;;;;5035563;28;20452;-79
2022/10/24 06:59:38;;;;;;;6.13;2.27;;;19.30;84.00;;;;;;5032717;28;20459;-79
2022/10/24 07:02:06;;;;;;;6.53;2.20;;;19.30;83.90;;;;;;5036045;28;20475;-79
2022/10/24 07:04:34;;;;;;;4.80;2.30;;;19.30;83.70;;;;;;5037168;28;20562;-79
2022/10/24 07:07:03;;;;;;;5.60;2.80;;;19.30;83.70;;;;;;5038501;28;20454;-79
2022/10/24 07:09:32;;;;;;;7.33;2.40;;;19.40;83.70;;;;;;5035457;28;20462;-80
2022/10/24 07:12:00;;;;;;;5.97;2.53;;;19.40;83.70;;;;;;5025954;28;20632;-80
2022/10/24 07:14:28;;;;;;;9.87;2.83;;;19.40;83.50;;;;;;5039120;28;20477;-79
2022/10/24 07:16:57;;;;;;;7.03;2.20;;;19.50;83.40;;;;;;5042324;28;20459;-80
2022/10/24 07:19:25;;;;;;;4.33;2.20;;;19.50;83.00;;;;;;5037710;28;20471;-80
2022/10/24 07:21:53;;;;;;;14.93;2.37;;;19.50;82.90;;;;;;5043796;28;20440;-80
2022/10/24 07:24:22;;;;;;;10.93;2.43;;;19.60;82.90;;;;;;5043844;28;20471;-79
2022/10/24 07:26:50;;;;;;;4.27;2.00;;;19.60;82.80;;;;;;5036096;28;20452;-80
2022/10/24 07:29:18;;;;;;;12.00;2.57;;;19.50;83.30;;;;;;5045642;28;20454;-80
2022/10/24 07:31:46;;;;;;;9.33;2.17;;;19.70;82.80;;;;;;5044228;28;20462;-80
2022/10/24 07:34:14;;;;;;;3.03;1.93;;;19.60;82.30;;;;;;5043992;28;20461;-80
2022/10/24 07:36:42;;;;;;;5.97;1.80;;;19.60;82.40;;;;;;5043336;28;20443;-80
2022/10/24 07:39:11;;;;;;;8.57;2.43;;;19.60;81.80;;;;;;5044375;28;20467;-80
2022/10/24 07:41:40;;;;;;;8.13;2.50;;;19.70;82.20;;;;;;5041981;28;20454;-80
2022/10/24 07:44:09;;;;;;;5.10;2.80;;;19.80;81.20;;;;;;5038979;28;20474;-80
2022/10/24 07:46:37;;;;;;;5.03;2.30;;;19.80;80.50;;;;;;5036731;28;20458;-78
2022/10/24 07:49:05;;;;;;;4.70;2.10;;;19.80;80.70;;;;;;5039668;28;20461;-80
2022/10/24 07:51:32;;;;;;;8.90;2.60;;;19.80;80.10;;;;;;5042377;28;20451;-79
2022/10/24 07:54:00;;;;;;;3.73;2.00;;;19.70;80.90;;;;;;5043137;28;20485;-80
2022/10/24 07:56:28;;;;;;;3.77;1.63;;;19.80;80.80;;;;;;5041099;28;20439;-79
2022/10/24 07:58:57;;;;;;;4.27;2.00;;;19.80;80.30;;;;;;5040212;28;20489;-79
2022/10/24 08:01:25;;;;;;;4.53;1.97;;;19.90;80.10;;;;;;5023150;28;20467;-79
2022/10/24 08:03:54;;;;;;;11.20;1.80;;;20.00;79.40;;;;;;5028039;28;20486;-79
2022/10/24 08:06:23;;;;;;;7.03;1.90;;;20.00;79.00;;;;;;5034734;28;20456;-79
2022/10/24 08:08:51;;;;;;;6.23;2.00;;;19.90;79.50;;;;;;5039344;28;20447;-79
2022/10/24 08:11:20;;;;;;;5.60;2.00;;;20.00;79.20;;;;;;5040416;28;20457;-80
2022/10/24 08:13:49;;;;;;;4.43;1.97;;;19.90;79.70;;;;;;5038824;28;20450;-78
2022/10/24 08:16:20;;;;;;;5.67;1.83;;;20.00;78.70;;;;;;5039078;28;20459;-78
2022/10/24 08:18:48;;;;;;;6.73;1.87;;;20.10;78.20;;;;;;5040309;28;20478;-79
2022/10/24 08:21:17;;;;;;;6.03;1.60;;;20.10;78.40;;;;;;5037572;28;20483;-79
2022/10/24 08:23:46;;;;;;;12.53;1.97;;;20.20;77.70;;;;;;5039765;28;20485;-80
2022/10/24 08:26:16;;;;;;;7.77;2.00;;;20.30;77.80;;;;;;5039776;28;20448;-78
2022/10/24 08:28:45;;;;;;;7.80;2.10;;;20.40;78.40;;;;;;5031534;28;20524;-79
2022/10/24 08:31:14;;;;;;;9.70;2.43;;;20.20;81.20;;;;;;5032332;28;20486;-80
2022/10/24 08:33:43;;;;;;;3.07;1.67;;;20.10;82.90;;;;;;5040791;28;20479;-79
2022/10/24 08:36:17;;;;;;;7.60;1.80;;;19.80;82.20;;;;;;5028703;28;20479;-79
2022/10/24 08:38:45;;;;;;;12.87;2.00;;;19.90;82.30;;;;;;5058350;28;20529;-78
2022/10/24 08:41:24;;;;;;;12.43;2.07;;;20.00;81.10;;;;;;5039809;28;20444;-77
2022/10/24 08:43:53;;;;;;;9.03;1.70;;;20.20;79.80;;;;;;5037931;28;20557;-78
2022/10/24 08:46:40;;;;;;;5.13;1.47;;;20.10;81.30;;;;;;5022716;28;20445;-79
2022/10/24 08:49:14;;;;;;;8.83;1.97;;;20.20;80.40;;;;;;5034299;28;20455;-76
2022/10/24 08:51:45;;;;;;;5.70;2.77;;;20.40;80.30;;;;;;5024712;28;20443;-77
2022/10/24 08:54:15;;;;;;;7.53;2.20;;;20.60;81.00;;;;;;5031509;28;20456;-78
2022/10/24 08:56:43;;;;;;;2.60;1.70;;;20.60;79.40;;;;;;5037519;28;20930;-77
2022/10/24 08:59:11;;;;;;;9.37;2.10;;;20.90;79.90;;;;;;5035763;28;20498;-77
2022/10/24 09:01:42;;;;;;;4.63;2.00;;;21.80;79.90;;;;;;5042865;28;20466;-81
2022/10/24 09:04:13;;;;;;;12.90;2.40;;;22.60;77.80;;;;;;5048156;28;20428;-79
2022/10/24 09:06:41;;;;;;;7.97;2.40;;;23.10;76.90;;;;;;5042804;28;20431;-78
2022/10/24 09:09:12;;;;;;;3.93;1.70;;;23.50;75.80;;;;;;5049758;28;20449;-76
2022/10/24 09:11:43;;;;;;;5.50;1.90;;;23.80;73.70;;;;;;5037791;28;20434;-77
2022/10/24 09:14:12;;;;;;;4.80;1.70;;;22.80;71.80;;;;;;5039163;28;20456;-81
2022/10/24 09:16:42;;;;;;;7.57;1.80;;;22.20;71.80;;;;;;5044735;28;20425;-80
2022/10/24 09:19:12;;;;;;;6.07;1.70;;;22.30;73.10;;;;;;5039277;28;20443;-78
2022/10/24 09:21:41;;;;;;;5.80;1.90;;;22.30;71.20;;;;;;5039265;28;20463;-79
2022/10/24 09:24:26;;;;;;;4.60;1.73;;;22.00;71.20;;;;;;5039003;28;20455;-78
2022/10/24 09:26:54;;;;;;;4.00;1.97;;;22.00;70.90;;;;;;5038884;28;20422;-78
2022/10/24 09:29:30;;;;;;;7.73;2.20;;;22.60;72.40;;;;;;5035029;28;20450;-79
2022/10/24 09:31:58;;;;;;;3.63;1.67;;;23.10;71.60;;;;;;5041140;28;20426;-78
2022/10/24 09:34:28;;;;;;;6.20;2.40;;;23.50;71.00;;;;;;5039500;28;20459;-79
2022/10/24 09:36:56;;;;;;;5.50;1.73;;;23.80;71.00;;;;;;5042215;28;20439;-80
2022/10/24 09:39:27;;;;;;;9.67;1.90;;;24.00;70.20;;;;;;5037815;28;20422;-78
2022/10/24 09:41:55;;;;;;;6.90;1.70;;;24.20;70.00;;;;;;5045875;28;20541;-78
2022/10/24 09:44:31;;;;;;;9.50;2.20;;;24.20;69.70;;;;;;5040043;28;20454;-78
2022/10/24 09:47:00;;;;;;;7.33;1.90;;;24.30;69.60;;;;;;5038064;28;20458;-79
2022/10/24 09:49:33;;;;;;;9.90;2.07;;;24.30;68.90;;;;;;5038993;28;20436;-79
2022/10/24 09:52:03;;;;;;;3.10;1.90;;;24.20;69.10;;;;;;5043001;28;20421;-78
2022/10/24 09:54:31;;;;;;;18.20;2.70;;;24.10;69.70;;;;;;5032278;28;20430;-78
2022/10/24 09:57:02;;;;;;;9.67;2.37;;;24.10;69.90;;;;;;5033381;28;20458;-78
2022/10/24 09:59:36;;;;;;;33.17;2.30;;;24.10;70.30;;;;;;5036080;28;20437;-79
2022/10/24 10:02:24;;;;;;;11.40;2.00;;;24.00;70.30;;;;;;5039315;28;20452;-79
2022/10/24 10:05:20;;;;;;;9.70;1.97;;;24.00;70.80;;;;;;5039765;28;20432;-78
2022/10/24 10:07:49;;;;;;;9.97;1.87;;;23.90;71.90;;;;;;5042282;28;20519;-79
2022/10/24 10:10:33;;;;;;;8.63;2.50;;;23.80;71.90;;;;;;5041166;28;20442;-79
2022/10/24 10:13:08;;;;;;;12.73;2.87;;;23.80;71.90;;;;;;5042323;28;20494;-79
2022/10/24 10:15:37;;;;;;;3.63;2.00;;;23.90;71.70;;;;;;5042328;28;20431;-79
2022/10/24 10:18:07;;;;;;;4.60;2.10;;;24.00;71.80;;;;;;5041438;28;20414;-79
2022/10/24 10:20:38;;;;;;;6.17;2.30;;;24.00;71.90;;;;;;5044161;28;20459;-79
2022/10/24 10:23:17;;;;;;;13.20;2.23;;;23.90;72.10;;;;;;5042238;28;20471;-79
2022/10/24 10:25:45;;;;;;;16.57;2.47;;;23.90;72.30;;;;;;5043103;28;20451;-80
2022/10/24 10:28:20;;;;;;;30.27;2.40;;;23.90;72.40;;;;;;5040007;28;20451;-79
2022/10/24 10:30:50;;;;;;;15.13;2.93;;;23.90;72.70;;;;;;5042029;28;20455;-79
2022/10/24 10:33:20;;;;;;;10.23;2.50;;;23.80;72.80;;;;;;5037718;28;21056;-79
2022/10/24 10:35:52;;;;;;;5.07;2.60;;;23.80;72.80;;;;;;5037478;28;20443;-79
2022/10/24 10:38:43;;;;;;;13.10;2.67;;;23.80;72.90;;;;;;5037055;28;20474;-78
2022/10/24 10:41:17;;;;;;;13.03;3.00;;;23.80;73.90;;;;;;5037328;28;20430;-78
2022/10/24 10:43:48;;;;;;;9.33;2.80;;;23.80;73.40;;;;;;5036893;28;20482;-79
2022/10/24 10:46:20;;;;;;;18.70;3.00;;;23.80;73.50;;;;;;5036428;28;20436;-79
2022/10/24 10:48:59;;;;;;;7.23;3.20;;;23.80;73.60;;;;;;5036746;28;20402;-79
2022/10/24 10:51:35;;;;;;;7.77;3.30;;;23.70;73.60;;;;;;5036542;28;20447;-78
2022/10/24 10:54:07;;;;;;;13.03;3.13;;;23.70;73.80;;;;;;5036781;28;20455;-79
2022/10/24 10:56:39;;;;;;;8.20;2.80;;;23.70;74.10;;;;;;5033706;28;20430;-82
2022/10/24 10:59:28;;;;;;;15.37;3.50;;;23.70;74.30;;;;;;5037946;28;20431;-82
2022/10/24 11:01:59;;;;;;;13.30;3.47;;;23.80;75.80;;;;;;5040780;28;20502;-80
2022/10/24 11:04:31;;;;;;;11.50;2.70;;;23.90;74.50;;;;;;5033973;28;20456;-80
2022/10/24 11:07:03;;;;;;;21.00;3.60;;;23.90;74.30;;;;;;5023256;28;20454;-78
2022/10/24 11:09:33;;;;;;;9.10;3.20;;;23.90;74.20;;;;;;5029990;28;20449;-79
2022/10/24 11:12:04;;;;;;;16.70;3.97;;;23.80;74.30;;;;;;5028043;28;20463;-79
2022/10/24 11:14:34;;;;;;;13.50;3.20;;;23.90;74.60;;;;;;5040140;28;20465;-79
2022/10/24 11:17:07;;;;;;;14.30;3.10;;;23.80;74.80;;;;;;5034791;28;20452;-79
2022/10/24 11:19:48;;;;;;;10.50;3.20;;;23.80;75.20;;;;;;5027924;28;20459;-79
2022/10/24 11:22:20;;;;;;;16.30;3.37;;;23.90;75.20;;;;;;5028304;28;20478;-79
2022/10/24 11:24:53;;;;;;;15.57;3.10;;;23.90;75.60;;;;;;5018329;28;20449;-80
2022/10/24 11:27:25;;;;;;;12.37;2.83;;;24.00;75.70;;;;;;5031825;28;20434;-80
2022/10/24 11:29:55;;;;;;;16.77;3.10;;;24.00;75.60;;;;;;5029709;28;20451;-80
2022/10/24 11:32:25;;;;;;;10.70;2.93;;;24.10;75.30;;;;;;5037592;28;20474;-81
2022/10/24 11:34:56;;;;;;;8.13;2.93;;;24.10;75.10;;;;;;5032388;28;20459;-80
2022/10/24 11:37:27;;;;;;;12.53;2.63;;;24.30;75.10;;;;;;5027764;28;20447;-80
2022/10/24 11:39:57;;;;;;;14.97;3.40;;;24.40;74.60;;;;;;5038535;28;20439;-80
2022/10/24 11:42:27;;;;;;;12.93;3.30;;;24.50;73.90;;;;;;5036340;28;20457;-79
2022/10/24 11:44:58;;;;;;;8.10;2.90;;;24.70;74.20;;;;;;5032948;28;20431;-79
2022/10/24 11:47:49;;;;;;;8.57;2.97;;;25.10;73.80;;;;;;5040763;28;20432;-79
2022/10/24 11:50:21;;;;;;;10.13;2.33;;;25.50;72.50;;;;;;5036300;28;20435;-79
2022/10/24 11:52:55;;;;;;;7.83;2.67;;;25.60;70.40;;;;;;5038761;28;20445;-79
2022/10/24 11:55:24;;;;;;;8.37;2.33;;;25.70;70.00;;;;;;5040004;28;20421;-79
2022/10/24 11:57:56;;;;;;;12.13;2.40;;;25.80;69.00;;;;;;5038721;28;20430;-79
2022/10/24 12:00:25;;;;;;;8.73;2.33;;;25.80;68.50;;;;;;5021889;28;20407;-79
2022/10/24 12:03:11;;;;;;;9.23;2.70;;;25.60;68.10;;;;;;5039656;28;20457;-79
2022/10/24 12:06:20;;;;;;;10.27;2.33;;;25.40;68.20;;;;;;5037995;28;20447;-79
2022/10/24 12:09:21;;;;;;;10.03;2.30;;;25.20;68.00;;;;;;5040168;28;20447;-79
2022/10/24 12:11:56;;;;;;;6.40;2.17;;;25.00;68.40;;;;;;5041663;28;20442;-79
2022/10/24 12:14:45;;;;;;;3.27;2.40;;;24.80;68.80;;;;;;5040514;28;20478;-79
2022/10/24 12:17:27;;;;;;;4.83;2.23;;;24.70;69.20;;;;;;5043159;28;20429;-79
2022/10/24 12:19:55;;;;;;;4.07;2.20;;;24.50;69.50;;;;;;5043169;28;20534;-80
2022/10/24 12:22:32;;;;;;;8.50;2.73;;;24.40;69.80;;;;;;5042057;28;20479;-79
2022/10/24 12:25:07;;;;;;;5.47;2.27;;;24.60;71.10;;;;;;5040505;28;20459;-78
2022/10/24 12:27:37;;;;;;;3.60;2.00;;;25.00;71.10;;;;;;5036637;28;20433;-78
2022/10/24 12:30:14;;;;;;;7.33;2.43;;;25.40;70.20;;;;;;5044218;28;20923;-79
2022/10/24 12:32:44;;;;;;;3.93;2.20;;;25.80;69.30;;;;;;5042869;28;20450;-78
2022/10/24 12:35:51;;;;;;;6.20;2.47;;;26.20;68.50;;;;;;5042531;28;20433;-79
2022/10/24 12:39:07;;;;;;;5.77;2.23;;;26.50;67.40;;;;;;5003434;28;20429;-79
2022/10/24 12:41:38;;;;;;;5.23;2.17;;;26.80;66.80;;;;;;5010291;28;20487;-79
2022/10/24 12:44:41;;;;;;;8.03;2.27;;;27.10;66.20;;;;;;5033806;28;20449;-79
2022/10/24 12:47:30;;;;;;;11.50;2.23;;;27.10;64.90;;;;;;5041089;28;20453;-79
2022/10/24 12:49:58;;;;;;;6.67;2.13;;;26.80;65.10;;;;;;5043318;28;20418;-79
2022/10/24 12:52:49;;;;;;;5.10;2.60;;;26.60;65.50;;;;;;5043217;28;20466;-79
2022/10/24 12:55:29;;;;;;;4.37;2.03;;;26.30;65.80;;;;;;5042781;28;20422;-79
2022/10/24 12:57:58;;;;;;;3.43;1.83;;;26.10;66.50;;;;;;5044593;28;20418;-79
2022/10/24 13:00:28;;;;;;;6.53;2.13;;;25.90;66.80;;;;;;5043809;28;20542;-80
2022/10/24 13:03:04;;;;;;;8.00;2.20;;;25.80;66.70;;;;;;5045203;28;20449;-80
2022/10/24 13:05:53;;;;;;;6.97;2.30;;;25.70;66.40;;;;;;5045676;28;20449;-80